sensor_id;sensor_type;location;lat;lon;timestamp;P1;durP1;ratioP1;P2;durP2;ratioP2
68076;SDS011;54866;53.458;14.540;2022-11-20T00:02:23;14.80;;;9.90;;
68076;SDS011;54866;53.458;14.540;2022-11-20T00:04:53;13.30;;;8.50;;
68076;SDS011;54866;53.458;14.540;2022-11-20T00:07:23;10.90;;;7.50;;
68076;SDS011;54866;53.458;14.540;2022-11-20T00:09:52;11.30;;;7.20;;
68076;SDS011;54866;53.458;14.540;2022-11-20T00:12:22;12.90;;;7.00;;
68076;SDS011;54866;53.458;14.540;2022-11-20T00:14:52;12.40;;;7.50;;
68076;SDS011;54866;53.458;14.540;2022-11-20T00:17:21;11.90;;;6.70;;
68076;SDS011;54866;53.458;14.540;2022-11-20T00:19:51;8.60;;;6.10;;
68076;SDS011;54866;53.458;14.540;2022-11-20T00:22:21;9.40;;;6.00;;
68076;SDS011;54866;53.458;14.540;2022-11-20T00:24:51;10.40;;;6.60;;
68076;SDS011;54866;53.458;14.540;2022-11-20T00:27:21;10.10;;;6.70;;
68076;SDS011;54866;53.458;14.540;2022-11-20T00:29:51;8.50;;;5.20;;
68076;SDS011;54866;53.458;14.540;2022-11-20T00:32:20;9.30;;;5.80;;
68076;SDS011;54866;53.458;14.540;2022-11-20T00:34:50;9.10;;;6.40;;
68076;SDS011;54866;53.458;14.540;2022-11-20T00:37:20;8.40;;;5.80;;
68076;SDS011;54866;53.458;14.540;2022-11-20T00:39:49;11.60;;;6.70;;
68076;SDS011;54866;53.458;14.540;2022-11-20T00:42:19;10.20;;;6.40;;
68076;SDS011;54866;53.458;14.540;2022-11-20T00:44:49;11.30;;;6.40;;
68076;SDS011;54866;53.458;14.540;2022-11-20T00:47:19;13.60;;;7.40;;
68076;SDS011;54866;53.458;14.540;2022-11-20T00:49:49;13.10;;;8.00;;
68076;SDS011;54866;53.458;14.540;2022-11-20T00:52:18;9.10;;;6.20;;
68076;SDS011;54866;53.458;14.540;2022-11-20T00:54:48;9.60;;;6.20;;
68076;SDS011;54866;53.458;14.540;2022-11-20T00:57:18;9.40;;;5.70;;
68076;SDS011;54866;53.458;14.540;2022-11-20T00:59:47;8.30;;;6.00;;
68076;SDS011;54866;53.458;14.540;2022-11-20T01:02:17;8.00;;;6.10;;
68076;SDS011;54866;53.458;14.540;2022-11-20T01:04:47;9.60;;;6.10;;
68076;SDS011;54866;53.458;14.540;2022-11-20T01:07:17;8.90;;;5.80;;
68076;SDS011;54866;53.458;14.540;2022-11-20T01:09:46;10.30;;;5.20;;
68076;SDS011;54866;53.458;14.540;2022-11-20T01:12:16;8.10;;;5.10;;
68076;SDS011;54866;53.458;14.540;2022-11-20T01:14:46;9.00;;;5.60;;
68076;SDS011;54866;53.458;14.540;2022-11-20T01:17:16;8.30;;;5.30;;
68076;SDS011;54866;53.458;14.540;2022-11-20T01:19:46;8.50;;;5.70;;
68076;SDS011;54866;53.458;14.540;2022-11-20T01:22:18;7.80;;;5.10;;
68076;SDS011;54866;53.458;14.540;2022-11-20T01:24:47;7.90;;;4.90;;
68076;SDS011;54866;53.458;14.540;2022-11-20T01:27:17;6.60;;;4.60;;
68076;SDS011;54866;53.458;14.540;2022-11-20T01:29:47;8.00;;;4.60;;
68076;SDS011;54866;53.458;14.540;2022-11-20T01:32:16;9.60;;;5.50;;
68076;SDS011;54866;53.458;14.540;2022-11-20T01:34:46;6.80;;;4.40;;
68076;SDS011;54866;53.458;14.540;2022-11-20T01:37:16;9.40;;;6.20;;
68076;SDS011;54866;53.458;14.540;2022-11-20T01:39:46;8.20;;;5.10;;
68076;SDS011;54866;53.458;14.540;2022-11-20T01:42:15;8.90;;;5.10;;
68076;SDS011;54866;53.458;14.540;2022-11-20T01:48:03;8.70;;;4.60;;
68076;SDS011;54866;53.458;14.540;2022-11-20T01:50:33;7.50;;;4.20;;
68076;SDS011;54866;53.458;14.540;2022-11-20T01:53:03;7.40;;;4.00;;
68076;SDS011;54866;53.458;14.540;2022-11-20T01:55:36;7.90;;;4.60;;
68076;SDS011;54866;53.458;14.540;2022-11-20T01:58:09;5.50;;;3.70;;
68076;SDS011;54866;53.458;14.540;2022-11-20T02:00:39;7.40;;;4.30;;
68076;SDS011;54866;53.458;14.540;2022-11-20T02:03:10;6.70;;;4.50;;
68076;SDS011;54866;53.458;14.540;2022-11-20T02:05:44;6.80;;;3.70;;
68076;SDS011;54866;53.458;14.540;2022-11-20T02:08:19;7.40;;;3.80;;
68076;SDS011;54866;53.458;14.540;2022-11-20T02:10:49;7.00;;;4.40;;
68076;SDS011;54866;53.458;14.540;2022-11-20T02:13:19;7.90;;;4.10;;
68076;SDS011;54866;53.458;14.540;2022-11-20T02:16:06;7.40;;;4.70;;
68076;SDS011;54866;53.458;14.540;2022-11-20T02:18:40;7.80;;;4.80;;
68076;SDS011;54866;53.458;14.540;2022-11-20T02:21:14;7.60;;;4.40;;
68076;SDS011;54866;53.458;14.540;2022-11-20T02:24:10;7.00;;;4.50;;
68076;SDS011;54866;53.458;14.540;2022-11-20T02:26:46;5.70;;;3.80;;
68076;SDS011;54866;53.458;14.540;2022-11-20T02:29:19;6.80;;;4.50;;
68076;SDS011;54866;53.458;14.540;2022-11-20T02:31:54;6.60;;;3.80;;
68076;SDS011;54866;53.458;14.540;2022-11-20T02:34:25;7.10;;;4.50;;
68076;SDS011;54866;53.458;14.540;2022-11-20T02:36:55;5.90;;;4.50;;
68076;SDS011;54866;53.458;14.540;2022-11-20T02:39:26;6.10;;;3.70;;
68076;SDS011;54866;53.458;14.540;2022-11-20T02:41:57;6.70;;;4.20;;
68076;SDS011;54866;53.458;14.540;2022-11-20T02:44:28;7.90;;;5.20;;
68076;SDS011;54866;53.458;14.540;2022-11-20T02:46:58;8.20;;;5.30;;
68076;SDS011;54866;53.458;14.540;2022-11-20T02:49:28;6.80;;;5.00;;
68076;SDS011;54866;53.458;14.540;2022-11-20T02:51:58;8.50;;;5.10;;
68076;SDS011;54866;53.458;14.540;2022-11-20T02:54:28;8.30;;;5.40;;
68076;SDS011;54866;53.458;14.540;2022-11-20T02:56:58;6.40;;;4.10;;
68076;SDS011;54866;53.458;14.540;2022-11-20T02:59:28;6.60;;;4.50;;
68076;SDS011;54866;53.458;14.540;2022-11-20T03:01:57;9.50;;;5.80;;
68076;SDS011;54866;53.458;14.540;2022-11-20T03:04:27;7.30;;;5.60;;
68076;SDS011;54866;53.458;14.540;2022-11-20T03:06:57;7.20;;;4.70;;
68076;SDS011;54866;53.458;14.540;2022-11-20T03:09:27;7.20;;;4.60;;
68076;SDS011;54866;53.458;14.540;2022-11-20T03:11:56;7.20;;;5.40;;
68076;SDS011;54866;53.458;14.540;2022-11-20T03:14:26;8.20;;;6.00;;
68076;SDS011;54866;53.458;14.540;2022-11-20T03:16:56;6.40;;;4.70;;
68076;SDS011;54866;53.458;14.540;2022-11-20T03:19:26;5.40;;;4.60;;
68076;SDS011;54866;53.458;14.540;2022-11-20T03:21:56;8.10;;;5.00;;
68076;SDS011;54866;53.458;14.540;2022-11-20T03:24:26;9.30;;;6.00;;
68076;SDS011;54866;53.458;14.540;2022-11-20T03:26:56;11.30;;;5.80;;
68076;SDS011;54866;53.458;14.540;2022-11-20T03:29:26;8.60;;;5.40;;
68076;SDS011;54866;53.458;14.540;2022-11-20T03:31:56;7.00;;;4.70;;
68076;SDS011;54866;53.458;14.540;2022-11-20T03:34:26;6.20;;;4.40;;
68076;SDS011;54866;53.458;14.540;2022-11-20T03:36:55;8.10;;;4.50;;
68076;SDS011;54866;53.458;14.540;2022-11-20T03:39:25;8.40;;;5.40;;
68076;SDS011;54866;53.458;14.540;2022-11-20T03:41:55;7.70;;;5.30;;
68076;SDS011;54866;53.458;14.540;2022-11-20T03:44:25;7.30;;;4.30;;
68076;SDS011;54866;53.458;14.540;2022-11-20T03:46:54;7.40;;;5.00;;
68076;SDS011;54866;53.458;14.540;2022-11-20T03:49:24;8.90;;;5.40;;
68076;SDS011;54866;53.458;14.540;2022-11-20T03:51:54;9.30;;;6.10;;
68076;SDS011;54866;53.458;14.540;2022-11-20T03:54:24;9.30;;;5.30;;
68076;SDS011;54866;53.458;14.540;2022-11-20T03:56:53;8.00;;;5.00;;
68076;SDS011;54866;53.458;14.540;2022-11-20T03:59:23;8.00;;;4.90;;
68076;SDS011;54866;53.458;14.540;2022-11-20T04:01:53;8.50;;;5.10;;
68076;SDS011;54866;53.458;14.540;2022-11-20T04:04:23;8.30;;;5.80;;
68076;SDS011;54866;53.458;14.540;2022-11-20T04:06:53;7.80;;;5.00;;
68076;SDS011;54866;53.458;14.540;2022-11-20T04:09:23;9.90;;;5.40;;
68076;SDS011;54866;53.458;14.540;2022-11-20T04:11:53;9.00;;;4.30;;
68076;SDS011;54866;53.458;14.540;2022-11-20T04:14:22;8.50;;;5.70;;
68076;SDS011;54866;53.458;14.540;2022-11-20T04:16:53;6.50;;;4.50;;
68076;SDS011;54866;53.458;14.540;2022-11-20T04:19:22;9.60;;;6.30;;
68076;SDS011;54866;53.458;14.540;2022-11-20T04:21:52;8.60;;;6.10;;
68076;SDS011;54866;53.458;14.540;2022-11-20T04:24:22;8.90;;;5.40;;
68076;SDS011;54866;53.458;14.540;2022-11-20T04:26:52;7.90;;;4.40;;
68076;SDS011;54866;53.458;14.540;2022-11-20T04:29:21;8.90;;;5.60;;
68076;SDS011;54866;53.458;14.540;2022-11-20T04:31:51;7.80;;;5.70;;
68076;SDS011;54866;53.458;14.540;2022-11-20T04:34:21;9.80;;;6.00;;
68076;SDS011;54866;53.458;14.540;2022-11-20T04:36:51;9.10;;;5.10;;
68076;SDS011;54866;53.458;14.540;2022-11-20T04:39:20;7.50;;;4.60;;
68076;SDS011;54866;53.458;14.540;2022-11-20T04:41:50;4.90;;;3.30;;
68076;SDS011;54866;53.458;14.540;2022-11-20T04:44:40;8.50;;;5.50;;
68076;SDS011;54866;53.458;14.540;2022-11-20T04:47:10;9.80;;;5.90;;
68076;SDS011;54866;53.458;14.540;2022-11-20T04:49:40;4.80;;;3.00;;
68076;SDS011;54866;53.458;14.540;2022-11-20T04:52:10;9.50;;;5.70;;
68076;SDS011;54866;53.458;14.540;2022-11-20T04:54:39;8.40;;;6.00;;
68076;SDS011;54866;53.458;14.540;2022-11-20T04:57:09;8.10;;;5.60;;
68076;SDS011;54866;53.458;14.540;2022-11-20T04:59:40;8.50;;;6.00;;
68076;SDS011;54866;53.458;14.540;2022-11-20T05:02:10;9.30;;;5.80;;
68076;SDS011;54866;53.458;14.540;2022-11-20T05:04:40;8.00;;;5.60;;
68076;SDS011;54866;53.458;14.540;2022-11-20T05:07:09;9.60;;;5.40;;
68076;SDS011;54866;53.458;14.540;2022-11-20T05:09:39;7.30;;;4.90;;
68076;SDS011;54866;53.458;14.540;2022-11-20T05:12:09;7.90;;;5.50;;
68076;SDS011;54866;53.458;14.540;2022-11-20T05:14:39;10.60;;;6.30;;
68076;SDS011;54866;53.458;14.540;2022-11-20T05:17:11;7.00;;;4.20;;
68076;SDS011;54866;53.458;14.540;2022-11-20T05:19:41;11.30;;;6.20;;
68076;SDS011;54866;53.458;14.540;2022-11-20T05:22:11;10.70;;;6.20;;
68076;SDS011;54866;53.458;14.540;2022-11-20T05:24:40;9.40;;;5.80;;
68076;SDS011;54866;53.458;14.540;2022-11-20T05:27:10;11.70;;;6.70;;
68076;SDS011;54866;53.458;14.540;2022-11-20T05:29:40;10.10;;;6.60;;
68076;SDS011;54866;53.458;14.540;2022-11-20T05:32:10;9.30;;;6.80;;
68076;SDS011;54866;53.458;14.540;2022-11-20T05:34:40;9.80;;;6.00;;
68076;SDS011;54866;53.458;14.540;2022-11-20T05:37:09;8.40;;;4.70;;
68076;SDS011;54866;53.458;14.540;2022-11-20T05:39:39;10.60;;;7.30;;
68076;SDS011;54866;53.458;14.540;2022-11-20T05:42:09;10.50;;;6.80;;
68076;SDS011;54866;53.458;14.540;2022-11-20T05:44:56;12.90;;;7.40;;
68076;SDS011;54866;53.458;14.540;2022-11-20T05:47:27;9.80;;;5.70;;
68076;SDS011;54866;53.458;14.540;2022-11-20T05:50:00;10.30;;;6.80;;
68076;SDS011;54866;53.458;14.540;2022-11-20T05:52:29;10.00;;;5.80;;
68076;SDS011;54866;53.458;14.540;2022-11-20T05:54:59;10.80;;;6.40;;
68076;SDS011;54866;53.458;14.540;2022-11-20T05:57:29;11.30;;;7.00;;
68076;SDS011;54866;53.458;14.540;2022-11-20T06:00:00;12.60;;;7.00;;
68076;SDS011;54866;53.458;14.540;2022-11-20T06:02:30;11.30;;;6.60;;
68076;SDS011;54866;53.458;14.540;2022-11-20T06:05:04;12.90;;;8.00;;
68076;SDS011;54866;53.458;14.540;2022-11-20T06:07:34;11.40;;;6.80;;
68076;SDS011;54866;53.458;14.540;2022-11-20T06:10:04;11.80;;;7.40;;
68076;SDS011;54866;53.458;14.540;2022-11-20T06:12:35;11.10;;;7.10;;
68076;SDS011;54866;53.458;14.540;2022-11-20T06:15:05;12.90;;;6.80;;
68076;SDS011;54866;53.458;14.540;2022-11-20T06:17:36;12.10;;;7.00;;
68076;SDS011;54866;53.458;14.540;2022-11-20T06:20:06;11.00;;;7.30;;
68076;SDS011;54866;53.458;14.540;2022-11-20T06:22:37;12.10;;;7.90;;
68076;SDS011;54866;53.458;14.540;2022-11-20T06:25:08;8.40;;;5.40;;
68076;SDS011;54866;53.458;14.540;2022-11-20T06:27:37;10.30;;;6.20;;
68076;SDS011;54866;53.458;14.540;2022-11-20T06:30:08;10.60;;;6.50;;
68076;SDS011;54866;53.458;14.540;2022-11-20T06:32:39;12.80;;;6.50;;
68076;SDS011;54866;53.458;14.540;2022-11-20T06:35:11;11.80;;;7.60;;
68076;SDS011;54866;53.458;14.540;2022-11-20T06:37:41;10.10;;;6.40;;
68076;SDS011;54866;53.458;14.540;2022-11-20T06:40:11;11.10;;;7.40;;
68076;SDS011;54866;53.458;14.540;2022-11-20T06:42:41;14.20;;;8.30;;
68076;SDS011;54866;53.458;14.540;2022-11-20T06:45:11;12.40;;;8.40;;
68076;SDS011;54866;53.458;14.540;2022-11-20T06:47:41;13.30;;;8.30;;
68076;SDS011;54866;53.458;14.540;2022-11-20T06:50:10;14.20;;;8.60;;
68076;SDS011;54866;53.458;14.540;2022-11-20T06:52:40;14.60;;;8.80;;
68076;SDS011;54866;53.458;14.540;2022-11-20T06:55:10;13.50;;;8.00;;
68076;SDS011;54866;53.458;14.540;2022-11-20T06:57:39;12.30;;;6.70;;
68076;SDS011;54866;53.458;14.540;2022-11-20T07:00:10;13.20;;;7.50;;
68076;SDS011;54866;53.458;14.540;2022-11-20T07:02:41;15.00;;;8.60;;
68076;SDS011;54866;53.458;14.540;2022-11-20T07:05:11;11.00;;;6.20;;
68076;SDS011;54866;53.458;14.540;2022-11-20T07:07:41;8.00;;;6.30;;
68076;SDS011;54866;53.458;14.540;2022-11-20T07:10:11;13.00;;;7.30;;
68076;SDS011;54866;53.458;14.540;2022-11-20T07:12:40;10.70;;;6.60;;
68076;SDS011;54866;53.458;14.540;2022-11-20T07:15:10;14.70;;;8.30;;
68076;SDS011;54866;53.458;14.540;2022-11-20T07:17:40;14.90;;;8.50;;
68076;SDS011;54866;53.458;14.540;2022-11-20T07:20:10;13.70;;;8.30;;
68076;SDS011;54866;53.458;14.540;2022-11-20T07:22:40;11.10;;;7.40;;
68076;SDS011;54866;53.458;14.540;2022-11-20T07:25:10;11.80;;;7.50;;
68076;SDS011;54866;53.458;14.540;2022-11-20T07:27:40;13.70;;;7.70;;
68076;SDS011;54866;53.458;14.540;2022-11-20T07:30:10;11.20;;;7.60;;
68076;SDS011;54866;53.458;14.540;2022-11-20T07:32:41;14.80;;;9.30;;
68076;SDS011;54866;53.458;14.540;2022-11-20T07:35:13;13.30;;;8.10;;
68076;SDS011;54866;53.458;14.540;2022-11-20T07:37:43;13.80;;;8.10;;
68076;SDS011;54866;53.458;14.540;2022-11-20T07:40:14;14.40;;;9.30;;
68076;SDS011;54866;53.458;14.540;2022-11-20T07:42:48;14.40;;;8.70;;
68076;SDS011;54866;53.458;14.540;2022-11-20T07:45:19;12.80;;;8.70;;
68076;SDS011;54866;53.458;14.540;2022-11-20T07:47:50;9.30;;;6.20;;
68076;SDS011;54866;53.458;14.540;2022-11-20T07:50:20;15.00;;;9.10;;
68076;SDS011;54866;53.458;14.540;2022-11-20T07:52:50;13.80;;;8.20;;
68076;SDS011;54866;53.458;14.540;2022-11-20T07:55:19;14.50;;;8.50;;
68076;SDS011;54866;53.458;14.540;2022-11-20T07:57:55;14.80;;;9.60;;
68076;SDS011;54866;53.458;14.540;2022-11-20T08:00:25;13.30;;;7.90;;
68076;SDS011;54866;53.458;14.540;2022-11-20T08:02:55;13.30;;;8.50;;
68076;SDS011;54866;53.458;14.540;2022-11-20T08:05:25;15.60;;;9.40;;
68076;SDS011;54866;53.458;14.540;2022-11-20T08:07:55;10.80;;;7.00;;
68076;SDS011;54866;53.458;14.540;2022-11-20T08:10:24;14.40;;;9.00;;
68076;SDS011;54866;53.458;14.540;2022-11-20T08:12:54;12.10;;;8.00;;
68076;SDS011;54866;53.458;14.540;2022-11-20T08:15:47;12.50;;;7.10;;
68076;SDS011;54866;53.458;14.540;2022-11-20T08:18:18;12.20;;;7.40;;
68076;SDS011;54866;53.458;14.540;2022-11-20T08:20:48;9.30;;;5.50;;
68076;SDS011;54866;53.458;14.540;2022-11-20T08:23:17;11.30;;;7.40;;
68076;SDS011;54866;53.458;14.540;2022-11-20T08:25:49;14.20;;;9.40;;
68076;SDS011;54866;53.458;14.540;2022-11-20T08:28:19;12.40;;;8.30;;
68076;SDS011;54866;53.458;14.540;2022-11-20T08:30:49;15.00;;;9.00;;
68076;SDS011;54866;53.458;14.540;2022-11-20T08:33:19;14.10;;;9.70;;
68076;SDS011;54866;53.458;14.540;2022-11-20T08:35:49;12.60;;;7.70;;
68076;SDS011;54866;53.458;14.540;2022-11-20T08:38:18;10.80;;;7.20;;
68076;SDS011;54866;53.458;14.540;2022-11-20T08:40:48;9.00;;;5.80;;
68076;SDS011;54866;53.458;14.540;2022-11-20T08:43:31;13.40;;;8.90;;
68076;SDS011;54866;53.458;14.540;2022-11-20T08:46:01;10.90;;;6.40;;
68076;SDS011;54866;53.458;14.540;2022-11-20T08:48:31;14.90;;;8.50;;
68076;SDS011;54866;53.458;14.540;2022-11-20T08:51:01;13.60;;;8.50;;
68076;SDS011;54866;53.458;14.540;2022-11-20T08:53:31;15.50;;;9.30;;
68076;SDS011;54866;53.458;14.540;2022-11-20T08:56:01;11.80;;;7.40;;
68076;SDS011;54866;53.458;14.540;2022-11-20T08:58:30;13.30;;;8.30;;
68076;SDS011;54866;53.458;14.540;2022-11-20T09:01:00;14.10;;;8.90;;
68076;SDS011;54866;53.458;14.540;2022-11-20T09:03:30;15.00;;;9.40;;
68076;SDS011;54866;53.458;14.540;2022-11-20T09:06:00;14.30;;;9.10;;
68076;SDS011;54866;53.458;14.540;2022-11-20T09:08:32;17.70;;;9.30;;
68076;SDS011;54866;53.458;14.540;2022-11-20T09:11:03;16.90;;;9.90;;
68076;SDS011;54866;53.458;14.540;2022-11-20T09:13:34;13.20;;;8.30;;
68076;SDS011;54866;53.458;14.540;2022-11-20T09:16:04;12.60;;;9.50;;
68076;SDS011;54866;53.458;14.540;2022-11-20T09:18:37;12.30;;;8.90;;
68076;SDS011;54866;53.458;14.540;2022-11-20T09:21:08;14.20;;;8.40;;
68076;SDS011;54866;53.458;14.540;2022-11-20T09:23:40;14.70;;;9.10;;
68076;SDS011;54866;53.458;14.540;2022-11-20T09:26:10;15.20;;;10.20;;
68076;SDS011;54866;53.458;14.540;2022-11-20T09:28:41;16.00;;;10.40;;
68076;SDS011;54866;53.458;14.540;2022-11-20T09:31:13;14.00;;;8.20;;
68076;SDS011;54866;53.458;14.540;2022-11-20T09:33:49;13.90;;;9.90;;
68076;SDS011;54866;53.458;14.540;2022-11-20T09:36:19;14.30;;;8.90;;
68076;SDS011;54866;53.458;14.540;2022-11-20T09:38:49;14.50;;;9.50;;
68076;SDS011;54866;53.458;14.540;2022-11-20T09:44:26;16.30;;;10.00;;
68076;SDS011;54866;53.458;14.540;2022-11-20T09:47:07;15.50;;;9.50;;
68076;SDS011;54866;53.458;14.540;2022-11-20T09:49:47;15.80;;;9.90;;
68076;SDS011;54866;53.458;14.540;2022-11-20T09:52:30;14.30;;;9.80;;
68076;SDS011;54866;53.458;14.540;2022-11-20T09:55:09;16.30;;;11.50;;
68076;SDS011;54866;53.458;14.540;2022-11-20T09:57:42;17.20;;;10.10;;
68076;SDS011;54866;53.458;14.540;2022-11-20T10:00:15;17.40;;;10.60;;
68076;SDS011;54866;53.458;14.540;2022-11-20T10:02:49;13.40;;;9.00;;
68076;SDS011;54866;53.458;14.540;2022-11-20T10:05:25;15.00;;;8.40;;
68076;SDS011;54866;53.458;14.540;2022-11-20T10:08:01;14.20;;;9.50;;
68076;SDS011;54866;53.458;14.540;2022-11-20T10:10:40;17.00;;;10.90;;
68076;SDS011;54866;53.458;14.540;2022-11-20T10:15:53;16.20;;;10.50;;
68076;SDS011;54866;53.458;14.540;2022-11-20T10:18:36;14.30;;;8.70;;
68076;SDS011;54866;53.458;14.540;2022-11-20T10:21:16;17.10;;;10.50;;
68076;SDS011;54866;53.458;14.540;2022-11-20T10:24:05;17.60;;;11.60;;
68076;SDS011;54866;53.458;14.540;2022-11-20T10:26:52;14.70;;;9.40;;
68076;SDS011;54866;53.458;14.540;2022-11-20T10:29:32;16.40;;;9.90;;
68076;SDS011;54866;53.458;14.540;2022-11-20T10:32:04;15.20;;;9.80;;
68076;SDS011;54866;53.458;14.540;2022-11-20T10:34:42;15.90;;;10.80;;
68076;SDS011;54866;53.458;14.540;2022-11-20T10:37:19;13.60;;;9.60;;
68076;SDS011;54866;53.458;14.540;2022-11-20T10:39:53;15.20;;;9.70;;
68076;SDS011;54866;53.458;14.540;2022-11-20T10:42:28;16.60;;;9.90;;
68076;SDS011;54866;53.458;14.540;2022-11-20T10:45:09;17.40;;;10.40;;
68076;SDS011;54866;53.458;14.540;2022-11-20T10:47:44;14.80;;;9.80;;
68076;SDS011;54866;53.458;14.540;2022-11-20T10:50:16;17.50;;;10.80;;
68076;SDS011;54866;53.458;14.540;2022-11-20T10:52:50;17.90;;;11.30;;
68076;SDS011;54866;53.458;14.540;2022-11-20T10:55:30;16.70;;;11.20;;
68076;SDS011;54866;53.458;14.540;2022-11-20T10:58:10;10.90;;;8.70;;
68076;SDS011;54866;53.458;14.540;2022-11-20T11:00:42;18.60;;;12.00;;
68076;SDS011;54866;53.458;14.540;2022-11-20T11:03:19;19.20;;;13.80;;
68076;SDS011;54866;53.458;14.540;2022-11-20T11:05:52;17.60;;;12.60;;
68076;SDS011;54866;53.458;14.540;2022-11-20T11:08:28;14.10;;;9.10;;
68076;SDS011;54866;53.458;14.540;2022-11-20T11:11:07;12.70;;;8.50;;
68076;SDS011;54866;53.458;14.540;2022-11-20T11:13:46;12.50;;;8.70;;
68076;SDS011;54866;53.458;14.540;2022-11-20T11:16:21;16.40;;;9.30;;
68076;SDS011;54866;53.458;14.540;2022-11-20T11:19:02;16.20;;;10.50;;
68076;SDS011;54866;53.458;14.540;2022-11-20T11:21:33;17.20;;;12.60;;
68076;SDS011;54866;53.458;14.540;2022-11-20T11:24:15;14.60;;;8.20;;
68076;SDS011;54866;53.458;14.540;2022-11-20T11:26:54;16.10;;;9.00;;
68076;SDS011;54866;53.458;14.540;2022-11-20T11:29:26;14.10;;;9.90;;
68076;SDS011;54866;53.458;14.540;2022-11-20T11:32:04;10.40;;;6.70;;
68076;SDS011;54866;53.458;14.540;2022-11-20T11:34:35;15.90;;;10.10;;
68076;SDS011;54866;53.458;14.540;2022-11-20T11:37:04;20.70;;;12.00;;
68076;SDS011;54866;53.458;14.540;2022-11-20T11:39:40;14.90;;;9.70;;
68076;SDS011;54866;53.458;14.540;2022-11-20T11:42:12;15.80;;;8.30;;
68076;SDS011;54866;53.458;14.540;2022-11-20T11:44:47;17.70;;;9.90;;
68076;SDS011;54866;53.458;14.540;2022-11-20T11:47:37;13.10;;;6.50;;
68076;SDS011;54866;53.458;14.540;2022-11-20T11:50:15;19.90;;;13.30;;
68076;SDS011;54866;53.458;14.540;2022-11-20T11:52:56;11.40;;;6.80;;
68076;SDS011;54866;53.458;14.540;2022-11-20T11:55:33;13.10;;;7.60;;
68076;SDS011;54866;53.458;14.540;2022-11-20T11:58:11;15.50;;;10.30;;
68076;SDS011;54866;53.458;14.540;2022-11-20T12:00:50;17.40;;;10.10;;
68076;SDS011;54866;53.458;14.540;2022-11-20T12:03:24;18.40;;;11.40;;
68076;SDS011;54866;53.458;14.540;2022-11-20T12:06:03;18.40;;;11.00;;
68076;SDS011;54866;53.458;14.540;2022-11-20T12:08:40;15.70;;;10.10;;
68076;SDS011;54866;53.458;14.540;2022-11-20T12:11:16;17.10;;;11.50;;
68076;SDS011;54866;53.458;14.540;2022-11-20T12:13:52;12.20;;;7.40;;
68076;SDS011;54866;53.458;14.540;2022-11-20T12:16:28;18.80;;;10.30;;
68076;SDS011;54866;53.458;14.540;2022-11-20T12:19:02;16.30;;;9.60;;
68076;SDS011;54866;53.458;14.540;2022-11-20T12:21:41;16.80;;;10.00;;
68076;SDS011;54866;53.458;14.540;2022-11-20T12:24:37;20.60;;;11.40;;
68076;SDS011;54866;53.458;14.540;2022-11-20T12:27:25;17.90;;;11.70;;
68076;SDS011;54866;53.458;14.540;2022-11-20T12:30:11;13.30;;;7.50;;
68076;SDS011;54866;53.458;14.540;2022-11-20T12:32:58;16.50;;;10.40;;
68076;SDS011;54866;53.458;14.540;2022-11-20T12:35:47;18.00;;;10.40;;
68076;SDS011;54866;53.458;14.540;2022-11-20T12:45:02;20.20;;;13.20;;
68076;SDS011;54866;53.458;14.540;2022-11-20T12:48:05;22.10;;;13.90;;
68076;SDS011;54866;53.458;14.540;2022-11-20T12:51:03;19.10;;;9.30;;
68076;SDS011;54866;53.458;14.540;2022-11-20T12:53:47;20.10;;;11.40;;
68076;SDS011;54866;53.458;14.540;2022-11-20T12:56:30;20.00;;;10.50;;
68076;SDS011;54866;53.458;14.540;2022-11-20T12:59:16;19.50;;;10.60;;
68076;SDS011;54866;53.458;14.540;2022-11-20T13:01:58;14.50;;;9.40;;
68076;SDS011;54866;53.458;14.540;2022-11-20T13:04:42;18.10;;;12.00;;
68076;SDS011;54866;53.458;14.540;2022-11-20T13:07:23;18.80;;;11.60;;
68076;SDS011;54866;53.458;14.540;2022-11-20T13:09:55;21.20;;;11.00;;
68076;SDS011;54866;53.458;14.540;2022-11-20T13:12:28;18.60;;;10.90;;
68076;SDS011;54866;53.458;14.540;2022-11-20T13:15:05;18.50;;;12.30;;
68076;SDS011;54866;53.458;14.540;2022-11-20T13:17:58;18.20;;;11.60;;
68076;SDS011;54866;53.458;14.540;2022-11-20T13:20:29;15.80;;;10.30;;
68076;SDS011;54866;53.458;14.540;2022-11-20T13:23:01;21.10;;;14.00;;
68076;SDS011;54866;53.458;14.540;2022-11-20T13:25:31;18.90;;;9.20;;
68076;SDS011;54866;53.458;14.540;2022-11-20T13:28:03;17.20;;;12.00;;
68076;SDS011;54866;53.458;14.540;2022-11-20T13:30:50;18.90;;;13.50;;
68076;SDS011;54866;53.458;14.540;2022-11-20T13:33:25;18.00;;;11.40;;
68076;SDS011;54866;53.458;14.540;2022-11-20T13:35:59;18.80;;;12.10;;
68076;SDS011;54866;53.458;14.540;2022-11-20T13:38:39;17.80;;;10.70;;
68076;SDS011;54866;53.458;14.540;2022-11-20T13:41:10;16.40;;;11.30;;
68076;SDS011;54866;53.458;14.540;2022-11-20T13:44:06;19.70;;;11.90;;
68076;SDS011;54866;53.458;14.540;2022-11-20T13:46:42;16.20;;;10.60;;
68076;SDS011;54866;53.458;14.540;2022-11-20T13:49:18;19.70;;;13.20;;
68076;SDS011;54866;53.458;14.540;2022-11-20T13:51:51;16.70;;;11.60;;
68076;SDS011;54866;53.458;14.540;2022-11-20T13:54:37;20.50;;;12.70;;
68076;SDS011;54866;53.458;14.540;2022-11-20T13:57:26;14.90;;;9.30;;
68076;SDS011;54866;53.458;14.540;2022-11-20T14:00:12;23.20;;;14.20;;
68076;SDS011;54866;53.458;14.540;2022-11-20T14:02:43;15.90;;;10.20;;
68076;SDS011;54866;53.458;14.540;2022-11-20T14:05:21;14.90;;;8.80;;
68076;SDS011;54866;53.458;14.540;2022-11-20T14:07:52;20.70;;;13.30;;
68076;SDS011;54866;53.458;14.540;2022-11-20T14:10:23;20.20;;;13.20;;
68076;SDS011;54866;53.458;14.540;2022-11-20T14:12:55;15.10;;;10.00;;
68076;SDS011;54866;53.458;14.540;2022-11-20T14:15:26;18.40;;;11.90;;
68076;SDS011;54866;53.458;14.540;2022-11-20T14:17:58;22.10;;;13.90;;
68076;SDS011;54866;53.458;14.540;2022-11-20T14:20:38;15.20;;;9.30;;
68076;SDS011;54866;53.458;14.540;2022-11-20T14:23:10;20.30;;;13.90;;
68076;SDS011;54866;53.458;14.540;2022-11-20T14:25:50;19.10;;;13.20;;
68076;SDS011;54866;53.458;14.540;2022-11-20T14:28:21;16.50;;;9.10;;
68076;SDS011;54866;53.458;14.540;2022-11-20T14:30:55;18.20;;;12.90;;
68076;SDS011;54866;53.458;14.540;2022-11-20T14:33:26;21.70;;;13.40;;
68076;SDS011;54866;53.458;14.540;2022-11-20T14:35:57;18.20;;;11.10;;
68076;SDS011;54866;53.458;14.540;2022-11-20T14:38:28;20.20;;;13.50;;
68076;SDS011;54866;53.458;14.540;2022-11-20T14:41:07;17.70;;;11.50;;
68076;SDS011;54866;53.458;14.540;2022-11-20T14:43:46;21.90;;;12.80;;
68076;SDS011;54866;53.458;14.540;2022-11-20T14:46:18;17.80;;;12.60;;
68076;SDS011;54866;53.458;14.540;2022-11-20T14:48:50;17.10;;;10.70;;
68076;SDS011;54866;53.458;14.540;2022-11-20T14:51:29;16.30;;;11.70;;
68076;SDS011;54866;53.458;14.540;2022-11-20T14:56:54;19.90;;;11.60;;
68076;SDS011;54866;53.458;14.540;2022-11-20T14:59:25;14.40;;;10.60;;
68076;SDS011;54866;53.458;14.540;2022-11-20T15:01:56;17.90;;;11.00;;
68076;SDS011;54866;53.458;14.540;2022-11-20T15:04:27;22.40;;;13.30;;
68076;SDS011;54866;53.458;14.540;2022-11-20T15:06:58;15.00;;;11.00;;
68076;SDS011;54866;53.458;14.540;2022-11-20T15:09:30;14.20;;;11.10;;
68076;SDS011;54866;53.458;14.540;2022-11-20T15:12:01;17.20;;;10.70;;
68076;SDS011;54866;53.458;14.540;2022-11-20T15:14:32;14.60;;;10.50;;
68076;SDS011;54866;53.458;14.540;2022-11-20T15:17:04;19.60;;;12.80;;